sensor_id;sensor_type;location;lat;lon;timestamp;P1;durP1;ratioP1;P2;durP2;ratioP2
11439;SDS011;5776;51.814;4.510;2023-08-06T00:00:10;1.75;;;1.30;;
11439;SDS011;5776;51.814;4.510;2023-08-06T00:02:36;2.03;;;1.50;;
11439;SDS011;5776;51.814;4.510;2023-08-06T00:05:04;1.40;;;1.00;;
11439;SDS011;5776;51.814;4.510;2023-08-06T00:07:30;2.92;;;1.65;;
11439;SDS011;5776;51.814;4.510;2023-08-06T00:09:55;3.53;;;1.48;;
11439;SDS011;5776;51.814;4.510;2023-08-06T00:12:21;1.98;;;1.30;;
11439;SDS011;5776;51.814;4.510;2023-08-06T00:14:51;3.65;;;2.28;;
11439;SDS011;5776;51.814;4.510;2023-08-06T00:17:18;1.17;;;0.98;;
11439;SDS011;5776;51.814;4.510;2023-08-06T00:19:44;2.25;;;1.48;;
11439;SDS011;5776;51.814;4.510;2023-08-06T00:22:10;1.83;;;1.15;;
11439;SDS011;5776;51.814;4.510;2023-08-06T00:24:36;1.88;;;1.20;;
11439;SDS011;5776;51.814;4.510;2023-08-06T00:27:02;2.17;;;1.60;;
11439;SDS011;5776;51.814;4.510;2023-08-06T00:29:28;1.50;;;1.30;;
11439;SDS011;5776;51.814;4.510;2023-08-06T00:31:54;1.38;;;1.15;;
11439;SDS011;5776;51.814;4.510;2023-08-06T00:34:20;1.58;;;1.30;;
11439;SDS011;5776;51.814;4.510;2023-08-06T00:36:46;2.25;;;1.73;;
11439;SDS011;5776;51.814;4.510;2023-08-06T00:39:13;2.00;;;1.50;;
11439;SDS011;5776;51.814;4.510;2023-08-06T00:41:39;1.52;;;1.40;;
11439;SDS011;5776;51.814;4.510;2023-08-06T00:44:05;1.88;;;1.20;;
11439;SDS011;5776;51.814;4.510;2023-08-06T00:46:31;1.40;;;1.02;;
11439;SDS011;5776;51.814;4.510;2023-08-06T00:48:59;1.75;;;1.15;;
11439;SDS011;5776;51.814;4.510;2023-08-06T00:51:25;3.95;;;1.40;;
11439;SDS011;5776;51.814;4.510;2023-08-06T00:53:52;2.70;;;1.70;;
11439;SDS011;5776;51.814;4.510;2023-08-06T00:56:18;4.55;;;1.60;;
11439;SDS011;5776;51.814;4.510;2023-08-06T00:58:45;2.00;;;1.50;;
11439;SDS011;5776;51.814;4.510;2023-08-06T01:01:11;1.90;;;1.30;;
11439;SDS011;5776;51.814;4.510;2023-08-06T01:03:38;1.90;;;1.60;;
11439;SDS011;5776;51.814;4.510;2023-08-06T01:06:04;3.20;;;1.70;;
11439;SDS011;5776;51.814;4.510;2023-08-06T01:11:08;1.88;;;1.60;;
11439;SDS011;5776;51.814;4.510;2023-08-06T01:13:46;2.63;;;1.30;;
11439;SDS011;5776;51.814;4.510;2023-08-06T01:16:17;3.80;;;1.75;;
11439;SDS011;5776;51.814;4.510;2023-08-06T01:18:43;1.80;;;1.38;;
11439;SDS011;5776;51.814;4.510;2023-08-06T01:21:12;2.33;;;1.33;;
11439;SDS011;5776;51.814;4.510;2023-08-06T01:23:39;5.35;;;1.73;;
11439;SDS011;5776;51.814;4.510;2023-08-06T01:31:18;2.20;;;1.67;;
11439;SDS011;5776;51.814;4.510;2023-08-06T01:33:52;2.72;;;2.00;;
11439;SDS011;5776;51.814;4.510;2023-08-06T01:36:19;4.10;;;1.92;;
11439;SDS011;5776;51.814;4.510;2023-08-06T01:38:47;3.03;;;1.55;;
11439;SDS011;5776;51.814;4.510;2023-08-06T01:41:13;3.90;;;2.40;;
11439;SDS011;5776;51.814;4.510;2023-08-06T01:43:39;8.75;;;1.73;;
11439;SDS011;5776;51.814;4.510;2023-08-06T01:46:05;2.95;;;1.58;;
11439;SDS011;5776;51.814;4.510;2023-08-06T01:48:30;3.60;;;2.50;;
11439;SDS011;5776;51.814;4.510;2023-08-06T01:50:56;2.63;;;1.80;;
11439;SDS011;5776;51.814;4.510;2023-08-06T01:53:23;3.75;;;2.05;;
11439;SDS011;5776;51.814;4.510;2023-08-06T01:55:49;5.10;;;2.33;;
11439;SDS011;5776;51.814;4.510;2023-08-06T01:58:16;4.88;;;2.22;;
11439;SDS011;5776;51.814;4.510;2023-08-06T02:00:43;2.97;;;2.00;;
11439;SDS011;5776;51.814;4.510;2023-08-06T02:03:09;3.10;;;2.40;;
11439;SDS011;5776;51.814;4.510;2023-08-06T02:05:35;5.03;;;2.67;;
11439;SDS011;5776;51.814;4.510;2023-08-06T02:08:00;3.58;;;2.88;;
11439;SDS011;5776;51.814;4.510;2023-08-06T02:10:28;2.95;;;2.63;;
11439;SDS011;5776;51.814;4.510;2023-08-06T02:12:54;5.28;;;2.88;;
11439;SDS011;5776;51.814;4.510;2023-08-06T02:15:20;4.40;;;2.88;;
11439;SDS011;5776;51.814;4.510;2023-08-06T02:17:45;3.75;;;2.97;;
11439;SDS011;5776;51.814;4.510;2023-08-06T02:20:11;4.68;;;2.70;;
11439;SDS011;5776;51.814;4.510;2023-08-06T02:22:37;7.47;;;3.13;;
11439;SDS011;5776;51.814;4.510;2023-08-06T02:25:03;4.68;;;3.17;;
11439;SDS011;5776;51.814;4.510;2023-08-06T02:27:29;5.00;;;3.63;;
11439;SDS011;5776;51.814;4.510;2023-08-06T02:29:55;4.03;;;3.42;;
11439;SDS011;5776;51.814;4.510;2023-08-06T02:32:21;5.05;;;3.40;;
11439;SDS011;5776;51.814;4.510;2023-08-06T02:34:47;4.68;;;3.65;;
11439;SDS011;5776;51.814;4.510;2023-08-06T02:37:14;4.00;;;3.22;;
11439;SDS011;5776;51.814;4.510;2023-08-06T02:39:40;4.03;;;3.28;;
11439;SDS011;5776;51.814;4.510;2023-08-06T02:42:06;3.90;;;3.33;;
11439;SDS011;5776;51.814;4.510;2023-08-06T02:44:33;5.70;;;3.90;;
11439;SDS011;5776;51.814;4.510;2023-08-06T02:46:59;4.88;;;3.70;;
11439;SDS011;5776;51.814;4.510;2023-08-06T02:49:25;3.42;;;2.42;;
11439;SDS011;5776;51.814;4.510;2023-08-06T02:51:51;6.35;;;3.47;;
11439;SDS011;5776;51.814;4.510;2023-08-06T02:54:18;6.22;;;3.42;;
11439;SDS011;5776;51.814;4.510;2023-08-06T02:56:44;6.68;;;4.05;;
11439;SDS011;5776;51.814;4.510;2023-08-06T02:59:11;4.68;;;3.53;;
11439;SDS011;5776;51.814;4.510;2023-08-06T03:01:38;5.43;;;4.03;;
11439;SDS011;5776;51.814;4.510;2023-08-06T03:04:05;5.65;;;3.92;;
11439;SDS011;5776;51.814;4.510;2023-08-06T03:06:31;4.97;;;3.95;;
11439;SDS011;5776;51.814;4.510;2023-08-06T03:08:57;6.35;;;4.75;;
11439;SDS011;5776;51.814;4.510;2023-08-06T03:11:23;5.75;;;4.47;;
11439;SDS011;5776;51.814;4.510;2023-08-06T03:13:49;6.28;;;4.43;;
11439;SDS011;5776;51.814;4.510;2023-08-06T03:16:15;6.75;;;4.47;;
11439;SDS011;5776;51.814;4.510;2023-08-06T03:18:41;6.53;;;4.63;;
11439;SDS011;5776;51.814;4.510;2023-08-06T03:21:07;5.03;;;4.40;;
11439;SDS011;5776;51.814;4.510;2023-08-06T03:23:32;5.57;;;4.65;;
11439;SDS011;5776;51.814;4.510;2023-08-06T03:26:03;6.75;;;4.82;;
11439;SDS011;5776;51.814;4.510;2023-08-06T03:28:31;12.95;;;5.30;;
11439;SDS011;5776;51.814;4.510;2023-08-06T03:31:03;7.22;;;5.13;;
11439;SDS011;5776;51.814;4.510;2023-08-06T03:33:29;4.15;;;3.30;;
11439;SDS011;5776;51.814;4.510;2023-08-06T03:35:56;1.80;;;1.65;;
11439;SDS011;5776;51.814;4.510;2023-08-06T03:38:22;1.30;;;0.80;;
11439;SDS011;5776;51.814;4.510;2023-08-06T03:40:49;0.93;;;0.70;;
11439;SDS011;5776;51.814;4.510;2023-08-06T03:43:15;1.10;;;0.50;;
11439;SDS011;5776;51.814;4.510;2023-08-06T03:45:42;2.65;;;0.47;;
11439;SDS011;5776;51.814;4.510;2023-08-06T03:48:08;0.68;;;0.47;;
11439;SDS011;5776;51.814;4.510;2023-08-06T03:50:35;0.60;;;0.43;;
11439;SDS011;5776;51.814;4.510;2023-08-06T03:53:01;0.70;;;0.40;;
11439;SDS011;5776;51.814;4.510;2023-08-06T03:55:27;0.65;;;0.43;;
11439;SDS011;5776;51.814;4.510;2023-08-06T03:57:53;1.75;;;0.50;;
11439;SDS011;5776;51.814;4.510;2023-08-06T04:00:19;0.85;;;0.60;;
11439;SDS011;5776;51.814;4.510;2023-08-06T04:02:44;0.90;;;0.70;;
11439;SDS011;5776;51.814;4.510;2023-08-06T04:05:10;1.95;;;1.00;;
11439;SDS011;5776;51.814;4.510;2023-08-06T04:07:37;2.10;;;1.33;;
11439;SDS011;5776;51.814;4.510;2023-08-06T04:10:03;1.83;;;1.35;;
11439;SDS011;5776;51.814;4.510;2023-08-06T04:12:31;2.70;;;1.65;;
11439;SDS011;5776;51.814;4.510;2023-08-06T04:14:58;5.00;;;1.33;;
11439;SDS011;5776;51.814;4.510;2023-08-06T04:17:24;2.45;;;1.30;;
11439;SDS011;5776;51.814;4.510;2023-08-06T04:19:51;2.08;;;1.38;;
11439;SDS011;5776;51.814;4.510;2023-08-06T04:22:18;2.25;;;1.15;;
11439;SDS011;5776;51.814;4.510;2023-08-06T04:24:44;2.97;;;1.42;;
11439;SDS011;5776;51.814;4.510;2023-08-06T04:27:11;3.85;;;1.77;;
11439;SDS011;5776;51.814;4.510;2023-08-06T04:29:37;4.50;;;1.80;;
11439;SDS011;5776;51.814;4.510;2023-08-06T04:32:05;5.65;;;1.60;;
11439;SDS011;5776;51.814;4.510;2023-08-06T04:34:32;4.65;;;1.48;;
11439;SDS011;5776;51.814;4.510;2023-08-06T04:36:59;3.50;;;1.75;;
11439;SDS011;5776;51.814;4.510;2023-08-06T04:39:26;3.20;;;1.58;;
11439;SDS011;5776;51.814;4.510;2023-08-06T04:41:51;3.47;;;1.52;;
11439;SDS011;5776;51.814;4.510;2023-08-06T04:44:17;3.50;;;1.60;;
11439;SDS011;5776;51.814;4.510;2023-08-06T04:46:43;4.00;;;1.55;;
11439;SDS011;5776;51.814;4.510;2023-08-06T04:49:09;5.72;;;1.95;;
11439;SDS011;5776;51.814;4.510;2023-08-06T04:51:35;4.40;;;1.70;;
11439;SDS011;5776;51.814;4.510;2023-08-06T04:54:01;2.33;;;1.60;;
11439;SDS011;5776;51.814;4.510;2023-08-06T04:56:27;4.05;;;1.80;;
11439;SDS011;5776;51.814;4.510;2023-08-06T04:58:53;4.10;;;1.58;;
11439;SDS011;5776;51.814;4.510;2023-08-06T05:01:19;3.40;;;1.50;;
11439;SDS011;5776;51.814;4.510;2023-08-06T05:03:44;4.50;;;2.00;;
11439;SDS011;5776;51.814;4.510;2023-08-06T05:06:10;4.13;;;1.73;;
11439;SDS011;5776;51.814;4.510;2023-08-06T05:08:36;2.80;;;1.88;;
11439;SDS011;5776;51.814;4.510;2023-08-06T05:11:02;3.05;;;1.60;;
11439;SDS011;5776;51.814;4.510;2023-08-06T05:13:28;4.13;;;1.80;;
11439;SDS011;5776;51.814;4.510;2023-08-06T05:15:54;2.58;;;1.65;;
11439;SDS011;5776;51.814;4.510;2023-08-06T05:18:20;3.70;;;1.90;;
11439;SDS011;5776;51.814;4.510;2023-08-06T05:20:46;7.43;;;2.20;;
11439;SDS011;5776;51.814;4.510;2023-08-06T05:23:12;4.10;;;1.98;;
11439;SDS011;5776;51.814;4.510;2023-08-06T05:25:37;5.40;;;2.35;;
11439;SDS011;5776;51.814;4.510;2023-08-06T05:28:06;4.15;;;1.85;;
11439;SDS011;5776;51.814;4.510;2023-08-06T05:30:32;4.82;;;2.30;;
11439;SDS011;5776;51.814;4.510;2023-08-06T05:32:58;3.53;;;1.92;;
11439;SDS011;5776;51.814;4.510;2023-08-06T05:35:23;4.00;;;2.00;;
11439;SDS011;5776;51.814;4.510;2023-08-06T05:37:50;5.25;;;2.13;;
11439;SDS011;5776;51.814;4.510;2023-08-06T05:40:16;4.22;;;2.28;;
11439;SDS011;5776;51.814;4.510;2023-08-06T05:42:42;6.25;;;2.25;;
11439;SDS011;5776;51.814;4.510;2023-08-06T05:45:08;4.50;;;2.30;;
11439;SDS011;5776;51.814;4.510;2023-08-06T05:47:34;4.25;;;2.03;;
11439;SDS011;5776;51.814;4.510;2023-08-06T05:49:59;5.15;;;2.25;;
11439;SDS011;5776;51.814;4.510;2023-08-06T05:52:25;3.28;;;2.20;;
11439;SDS011;5776;51.814;4.510;2023-08-06T05:54:51;5.72;;;2.03;;
11439;SDS011;5776;51.814;4.510;2023-08-06T05:57:17;4.95;;;2.25;;
11439;SDS011;5776;51.814;4.510;2023-08-06T05:59:43;9.93;;;2.80;;
11439;SDS011;5776;51.814;4.510;2023-08-06T06:02:10;4.70;;;2.00;;
11439;SDS011;5776;51.814;4.510;2023-08-06T06:04:37;4.25;;;1.70;;
11439;SDS011;5776;51.814;4.510;2023-08-06T06:07:03;2.67;;;1.50;;
11439;SDS011;5776;51.814;4.510;2023-08-06T06:09:29;3.83;;;1.42;;
11439;SDS011;5776;51.814;4.510;2023-08-06T06:11:55;3.53;;;1.50;;
11439;SDS011;5776;51.814;4.510;2023-08-06T06:14:22;3.08;;;1.38;;
11439;SDS011;5776;51.814;4.510;2023-08-06T06:16:48;2.78;;;1.20;;
11439;SDS011;5776;51.814;4.510;2023-08-06T06:19:14;2.40;;;1.00;;
11439;SDS011;5776;51.814;4.510;2023-08-06T06:21:39;4.80;;;1.15;;
11439;SDS011;5776;51.814;4.510;2023-08-06T06:24:07;2.03;;;1.23;;
11439;SDS011;5776;51.814;4.510;2023-08-06T06:26:33;3.92;;;1.27;;
11439;SDS011;5776;51.814;4.510;2023-08-06T06:28:59;2.83;;;1.05;;
11439;SDS011;5776;51.814;4.510;2023-08-06T06:31:25;2.83;;;1.02;;
11439;SDS011;5776;51.814;4.510;2023-08-06T06:33:51;1.70;;;0.98;;
11439;SDS011;5776;51.814;4.510;2023-08-06T06:36:19;4.22;;;1.23;;
11439;SDS011;5776;51.814;4.510;2023-08-06T06:38:45;5.38;;;0.98;;
11439;SDS011;5776;51.814;4.510;2023-08-06T06:41:11;2.28;;;1.17;;
11439;SDS011;5776;51.814;4.510;2023-08-06T06:43:37;3.10;;;1.10;;
11439;SDS011;5776;51.814;4.510;2023-08-06T06:46:05;5.57;;;1.50;;
11439;SDS011;5776;51.814;4.510;2023-08-06T06:48:32;4.43;;;1.40;;
11439;SDS011;5776;51.814;4.510;2023-08-06T06:50:58;2.60;;;1.50;;
11439;SDS011;5776;51.814;4.510;2023-08-06T06:53:24;3.65;;;1.65;;
11439;SDS011;5776;51.814;4.510;2023-08-06T06:56:01;2.67;;;1.23;;
11439;SDS011;5776;51.814;4.510;2023-08-06T06:58:30;4.20;;;1.80;;
11439;SDS011;5776;51.814;4.510;2023-08-06T07:00:56;5.05;;;1.52;;
11439;SDS011;5776;51.814;4.510;2023-08-06T07:03:22;3.35;;;1.58;;
11439;SDS011;5776;51.814;4.510;2023-08-06T07:05:47;2.33;;;1.40;;
11439;SDS011;5776;51.814;4.510;2023-08-06T07:08:14;3.75;;;1.55;;
11439;SDS011;5776;51.814;4.510;2023-08-06T07:10:40;3.83;;;1.50;;
11439;SDS011;5776;51.814;4.510;2023-08-06T07:13:06;4.07;;;1.60;;
11439;SDS011;5776;51.814;4.510;2023-08-06T07:15:34;3.85;;;1.50;;
11439;SDS011;5776;51.814;4.510;2023-08-06T07:18:00;3.75;;;1.38;;
11439;SDS011;5776;51.814;4.510;2023-08-06T07:20:26;2.58;;;1.75;;
11439;SDS011;5776;51.814;4.510;2023-08-06T07:22:54;3.05;;;1.40;;
11439;SDS011;5776;51.814;4.510;2023-08-06T07:25:21;4.80;;;2.03;;
11439;SDS011;5776;51.814;4.510;2023-08-06T07:27:47;2.53;;;1.60;;
11439;SDS011;5776;51.814;4.510;2023-08-06T07:30:14;6.30;;;1.80;;
11439;SDS011;5776;51.814;4.510;2023-08-06T07:32:40;5.85;;;1.52;;
11439;SDS011;5776;51.814;4.510;2023-08-06T07:35:07;2.40;;;1.40;;
11439;SDS011;5776;51.814;4.510;2023-08-06T07:37:38;5.78;;;1.67;;
11439;SDS011;5776;51.814;4.510;2023-08-06T07:40:05;2.33;;;1.35;;
11439;SDS011;5776;51.814;4.510;2023-08-06T07:42:30;2.90;;;1.30;;
11439;SDS011;5776;51.814;4.510;2023-08-06T07:44:58;3.25;;;1.27;;
11439;SDS011;5776;51.814;4.510;2023-08-06T07:47:25;3.28;;;1.23;;
11439;SDS011;5776;51.814;4.510;2023-08-06T07:49:50;6.30;;;1.25;;
11439;SDS011;5776;51.814;4.510;2023-08-06T07:52:16;2.35;;;1.02;;
11439;SDS011;5776;51.814;4.510;2023-08-06T07:54:42;3.75;;;0.80;;
11439;SDS011;5776;51.814;4.510;2023-08-06T07:57:08;3.47;;;1.00;;
11439;SDS011;5776;51.814;4.510;2023-08-06T07:59:34;3.10;;;1.17;;
11439;SDS011;5776;51.814;4.510;2023-08-06T08:02:00;5.13;;;1.20;;
11439;SDS011;5776;51.814;4.510;2023-08-06T08:04:27;5.03;;;1.17;;
11439;SDS011;5776;51.814;4.510;2023-08-06T08:06:53;6.18;;;1.58;;
11439;SDS011;5776;51.814;4.510;2023-08-06T08:09:19;6.45;;;1.00;;
11439;SDS011;5776;51.814;4.510;2023-08-06T08:11:45;3.13;;;0.77;;
11439;SDS011;5776;51.814;4.510;2023-08-06T08:14:11;2.33;;;0.73;;
11439;SDS011;5776;51.814;4.510;2023-08-06T08:16:38;5.55;;;1.17;;
11439;SDS011;5776;51.814;4.510;2023-08-06T08:19:04;3.63;;;0.88;;
11439;SDS011;5776;51.814;4.510;2023-08-06T08:21:30;1.83;;;0.70;;
11439;SDS011;5776;51.814;4.510;2023-08-06T08:23:55;4.00;;;0.80;;
11439;SDS011;5776;51.814;4.510;2023-08-06T08:26:21;4.22;;;0.73;;
11439;SDS011;5776;51.814;4.510;2023-08-06T08:28:47;3.85;;;0.70;;
11439;SDS011;5776;51.814;4.510;2023-08-06T08:31:13;3.67;;;0.80;;
11439;SDS011;5776;51.814;4.510;2023-08-06T08:33:39;5.60;;;1.02;;
11439;SDS011;5776;51.814;4.510;2023-08-06T08:36:06;3.47;;;0.90;;
11439;SDS011;5776;51.814;4.510;2023-08-06T08:38:32;4.53;;;1.08;;
11439;SDS011;5776;51.814;4.510;2023-08-06T08:40:58;4.60;;;1.23;;
11439;SDS011;5776;51.814;4.510;2023-08-06T08:43:24;7.57;;;1.17;;
11439;SDS011;5776;51.814;4.510;2023-08-06T08:45:51;1.75;;;0.98;;
11439;SDS011;5776;51.814;4.510;2023-08-06T08:48:18;2.75;;;1.20;;
11439;SDS011;5776;51.814;4.510;2023-08-06T08:50:45;3.35;;;1.00;;
11439;SDS011;5776;51.814;4.510;2023-08-06T08:53:16;2.97;;;0.80;;
11439;SDS011;5776;51.814;4.510;2023-08-06T08:55:43;4.20;;;1.20;;
11439;SDS011;5776;51.814;4.510;2023-08-06T08:58:12;3.42;;;1.10;;
11439;SDS011;5776;51.814;4.510;2023-08-06T09:00:39;4.32;;;1.25;;
11439;SDS011;5776;51.814;4.510;2023-08-06T09:03:07;2.65;;;1.10;;
11439;SDS011;5776;51.814;4.510;2023-08-06T09:05:33;1.98;;;0.80;;
11439;SDS011;5776;51.814;4.510;2023-08-06T09:08:02;1.48;;;0.90;;
11439;SDS011;5776;51.814;4.510;2023-08-06T09:10:28;2.85;;;1.10;;
11439;SDS011;5776;51.814;4.510;2023-08-06T09:12:54;4.70;;;1.30;;
11439;SDS011;5776;51.814;4.510;2023-08-06T09:15:23;6.35;;;1.33;;
11439;SDS011;5776;51.814;4.510;2023-08-06T09:17:49;3.40;;;1.27;;
11439;SDS011;5776;51.814;4.510;2023-08-06T09:20:15;3.97;;;1.38;;
11439;SDS011;5776;51.814;4.510;2023-08-06T09:22:42;4.60;;;1.25;;
11439;SDS011;5776;51.814;4.510;2023-08-06T09:25:08;3.95;;;1.30;;
11439;SDS011;5776;51.814;4.510;2023-08-06T09:27:39;3.70;;;1.40;;
11439;SDS011;5776;51.814;4.510;2023-08-06T09:30:05;2.83;;;1.25;;
11439;SDS011;5776;51.814;4.510;2023-08-06T09:32:44;1.95;;;1.27;;
11439;SDS011;5776;51.814;4.510;2023-08-06T09:35:16;5.95;;;1.30;;
11439;SDS011;5776;51.814;4.510;2023-08-06T09:37:42;1.50;;;0.90;;
11439;SDS011;5776;51.814;4.510;2023-08-06T09:42:50;6.22;;;1.17;;
11439;SDS011;5776;51.814;4.510;2023-08-06T09:45:16;2.80;;;0.80;;
11439;SDS011;5776;51.814;4.510;2023-08-06T09:47:43;5.22;;;1.10;;
11439;SDS011;5776;51.814;4.510;2023-08-06T09:50:16;2.30;;;0.85;;
11439;SDS011;5776;51.814;4.510;2023-08-06T09:52:42;5.50;;;1.13;;
11439;SDS011;5776;51.814;4.510;2023-08-06T09:55:09;3.80;;;1.13;;
11439;SDS011;5776;51.814;4.510;2023-08-06T09:57:37;2.50;;;0.95;;
11439;SDS011;5776;51.814;4.510;2023-08-06T10:00:03;3.53;;;1.25;;
11439;SDS011;5776;51.814;4.510;2023-08-06T10:02:30;3.33;;;1.33;;
11439;SDS011;5776;51.814;4.510;2023-08-06T10:04:57;4.30;;;1.20;;
11439;SDS011;5776;51.814;4.510;2023-08-06T10:07:24;2.13;;;0.80;;
11439;SDS011;5776;51.814;4.510;2023-08-06T10:09:50;1.95;;;0.90;;
11439;SDS011;5776;51.814;4.510;2023-08-06T10:12:16;2.25;;;0.93;;
11439;SDS011;5776;51.814;4.510;2023-08-06T10:14:44;1.80;;;1.00;;
11439;SDS011;5776;51.814;4.510;2023-08-06T10:17:11;4.43;;;1.13;;
11439;SDS011;5776;51.814;4.510;2023-08-06T10:19:37;1.60;;;0.80;;
11439;SDS011;5776;51.814;4.510;2023-08-06T10:22:12;2.95;;;0.75;;
11439;SDS011;5776;51.814;4.510;2023-08-06T10:27:22;1.38;;;0.80;;
11439;SDS011;5776;51.814;4.510;2023-08-06T10:29:48;3.00;;;1.00;;
11439;SDS011;5776;51.814;4.510;2023-08-06T10:32:15;1.33;;;0.88;;
11439;SDS011;5776;51.814;4.510;2023-08-06T10:34:53;2.40;;;1.10;;
11439;SDS011;5776;51.814;4.510;2023-08-06T10:37:23;5.22;;;1.20;;
11439;SDS011;5776;51.814;4.510;2023-08-06T10:39:50;2.28;;;1.25;;
11439;SDS011;5776;51.814;4.510;2023-08-06T10:42:20;2.05;;;1.08;;
11439;SDS011;5776;51.814;4.510;2023-08-06T10:47:43;1.65;;;0.93;;
11439;SDS011;5776;51.814;4.510;2023-08-06T10:50:14;3.78;;;1.05;;
11439;SDS011;5776;51.814;4.510;2023-08-06T10:52:44;2.53;;;0.85;;
11439;SDS011;5776;51.814;4.510;2023-08-06T10:55:10;4.15;;;1.33;;
11439;SDS011;5776;51.814;4.510;2023-08-06T10:57:36;5.10;;;1.42;;
11439;SDS011;5776;51.814;4.510;2023-08-06T11:00:04;2.42;;;1.40;;
11439;SDS011;5776;51.814;4.510;2023-08-06T11:02:34;5.75;;;1.00;;
11439;SDS011;5776;51.814;4.510;2023-08-06T11:05:07;4.60;;;1.33;;
11439;SDS011;5776;51.814;4.510;2023-08-06T11:07:34;3.33;;;1.58;;
11439;SDS011;5776;51.814;4.510;2023-08-06T11:10:03;3.58;;;0.90;;
11439;SDS011;5776;51.814;4.510;2023-08-06T11:12:33;4.63;;;1.15;;
11439;SDS011;5776;51.814;4.510;2023-08-06T11:14:59;4.63;;;0.90;;
11439;SDS011;5776;51.814;4.510;2023-08-06T11:17:27;2.30;;;0.60;;
11439;SDS011;5776;51.814;4.510;2023-08-06T11:19:53;2.78;;;0.90;;
11439;SDS011;5776;51.814;4.510;2023-08-06T11:22:22;3.72;;;1.05;;
11439;SDS011;5776;51.814;4.510;2023-08-06T11:24:48;2.65;;;0.95;;
11439;SDS011;5776;51.814;4.510;2023-08-06T11:27:14;3.08;;;0.80;;
11439;SDS011;5776;51.814;4.510;2023-08-06T11:29:40;2.63;;;0.98;;
11439;SDS011;5776;51.814;4.510;2023-08-06T11:32:10;5.70;;;1.20;;
11439;SDS011;5776;51.814;4.510;2023-08-06T11:34:36;3.08;;;0.85;;
11439;SDS011;5776;51.814;4.510;2023-08-06T11:37:05;5.60;;;1.08;;
11439;SDS011;5776;51.814;4.510;2023-08-06T11:39:34;1.90;;;0.95;;
11439;SDS011;5776;51.814;4.510;2023-08-06T11:42:06;4.15;;;1.00;;
11439;SDS011;5776;51.814;4.510;2023-08-06T11:44:36;3.58;;;0.85;;
11439;SDS011;5776;51.814;4.510;2023-08-06T11:47:05;4.15;;;1.08;;
11439;SDS011;5776;51.814;4.510;2023-08-06T11:49:44;1.80;;;0.90;;
11439;SDS011;5776;51.814;4.510;2023-08-06T11:52:21;4.90;;;1.00;;
11439;SDS011;5776;51.814;4.510;2023-08-06T11:55:04;6.57;;;0.80;;
11439;SDS011;5776;51.814;4.510;2023-08-06T11:57:43;3.75;;;0.90;;
11439;SDS011;5776;51.814;4.510;2023-08-06T12:00:10;3.78;;;1.48;;
11439;SDS011;5776;51.814;4.510;2023-08-06T12:02:40;3.53;;;1.05;;
11439;SDS011;5776;51.814;4.510;2023-08-06T12:05:14;3.00;;;1.00;;
11439;SDS011;5776;51.814;4.510;2023-08-06T12:07:45;3.30;;;0.70;;
11439;SDS011;5776;51.814;4.510;2023-08-06T12:10:15;2.72;;;1.02;;
11439;SDS011;5776;51.814;4.510;2023-08-06T12:12:42;3.22;;;1.00;;
11439;SDS011;5776;51.814;4.510;2023-08-06T12:15:08;3.80;;;0.88;;
11439;SDS011;5776;51.814;4.510;2023-08-06T12:17:34;2.28;;;0.93;;
11439;SDS011;5776;51.814;4.510;2023-08-06T12:20:01;2.90;;;0.80;;
11439;SDS011;5776;51.814;4.510;2023-08-06T12:22:31;1.85;;;0.80;;
11439;SDS011;5776;51.814;4.510;2023-08-06T12:25:01;2.28;;;0.98;;
11439;SDS011;5776;51.814;4.510;2023-08-06T12:27:29;2.63;;;0.90;;
11439;SDS011;5776;51.814;4.510;2023-08-06T12:29:56;2.47;;;0.80;;
11439;SDS011;5776;51.814;4.510;2023-08-06T12:32:25;4.28;;;1.02;;
11439;SDS011;5776;51.814;4.510;2023-08-06T12:34:51;5.53;;;1.00;;
11439;SDS011;5776;51.814;4.510;2023-08-06T12:37:16;4.60;;;0.90;;
11439;SDS011;5776;51.814;4.510;2023-08-06T12:39:42;3.38;;;1.20;;
11439;SDS011;5776;51.814;4.510;2023-08-06T12:42:08;2.80;;;0.95;;
11439;SDS011;5776;51.814;4.510;2023-08-06T12:44:35;4.43;;;1.17;;
11439;SDS011;5776;51.814;4.510;2023-08-06T12:47:00;2.78;;;0.98;;
11439;SDS011;5776;51.814;4.510;2023-08-06T12:49:27;3.33;;;0.98;;
11439;SDS011;5776;51.814;4.510;2023-08-06T12:51:53;2.45;;;0.75;;
11439;SDS011;5776;51.814;4.510;2023-08-06T12:54:20;2.38;;;0.90;;
11439;SDS011;5776;51.814;4.510;2023-08-06T12:56:47;5.60;;;1.13;;
11439;SDS011;5776;51.814;4.510;2023-08-06T12:59:13;1.95;;;0.65;;
11439;SDS011;5776;51.814;4.510;2023-08-06T13:01:42;2.80;;;0.63;;
11439;SDS011;5776;51.814;4.510;2023-08-06T13:04:08;2.35;;;0.68;;
11439;SDS011;5776;51.814;4.510;2023-08-06T13:06:33;3.47;;;0.70;;
11439;SDS011;5776;51.814;4.510;2023-08-06T13:09:04;2.17;;;0.52;;
11439;SDS011;5776;51.814;4.510;2023-08-06T13:11:33;2.63;;;0.75;;
11439;SDS011;5776;51.814;4.510;2023-08-06T13:14:09;4.68;;;0.80;;
11439;SDS011;5776;51.814;4.510;2023-08-06T13:16:37;0.98;;;0.50;;
11439;SDS011;5776;51.814;4.510;2023-08-06T13:19:05;0.52;;;0.40;;
11439;SDS011;5776;51.814;4.510;2023-08-06T13:21:33;0.30;;;0.30;;
11439;SDS011;5776;51.814;4.510;2023-08-06T13:24:10;3.15;;;0.60;;
11439;SDS011;5776;51.814;4.510;2023-08-06T13:26:35;2.83;;;0.75;;
11439;SDS011;5776;51.814;4.510;2023-08-06T13:29:01;2.83;;;0.77;;
11439;SDS011;5776;51.814;4.510;2023-08-06T13:31:30;3.17;;;0.95;;
11439;SDS011;5776;51.814;4.510;2023-08-06T13:33:55;3.88;;;1.00;;
11439;SDS011;5776;51.814;4.510;2023-08-06T13:36:24;8.13;;;1.13;;
11439;SDS011;5776;51.814;4.510;2023-08-06T13:38:50;5.43;;;1.23;;
11439;SDS011;5776;51.814;4.510;2023-08-06T13:41:16;7.00;;;1.40;;
11439;SDS011;5776;51.814;4.510;2023-08-06T13:43:43;6.00;;;1.23;;
11439;SDS011;5776;51.814;4.510;2023-08-06T13:46:11;3.50;;;1.27;;
11439;SDS011;5776;51.814;4.510;2023-08-06T13:48:45;3.50;;;0.90;;
11439;SDS011;5776;51.814;4.510;2023-08-06T13:51:12;4.93;;;0.98;;
11439;SDS011;5776;51.814;4.510;2023-08-06T13:53:39;4.22;;;0.85;;
11439;SDS011;5776;51.814;4.510;2023-08-06T13:56:05;5.03;;;0.90;;
11439;SDS011;5776;51.814;4.510;2023-08-06T13:58:33;3.95;;;0.88;;
11439;SDS011;5776;51.814;4.510;2023-08-06T14:00:59;3.15;;;0.95;;
11439;SDS011;5776;51.814;4.510;2023-08-06T14:03:25;3.40;;;1.10;;
11439;SDS011;5776;51.814;4.510;2023-08-06T14:05:51;7.43;;;1.25;;
11439;SDS011;5776;51.814;4.510;2023-08-06T14:08:18;7.88;;;1.33;;
11439;SDS011;5776;51.814;4.510;2023-08-06T14:10:44;3.38;;;1.05;;
11439;SDS011;5776;51.814;4.510;2023-08-06T14:13:11;3.55;;;0.90;;
11439;SDS011;5776;51.814;4.510;2023-08-06T14:15:37;5.13;;;1.25;;
11439;SDS011;5776;51.814;4.510;2023-08-06T14:18:06;5.00;;;0.70;;
11439;SDS011;5776;51.814;4.510;2023-08-06T14:20:34;4.63;;;1.10;;
11439;SDS011;5776;51.814;4.510;2023-08-06T14:23:00;5.18;;;1.33;;
11439;SDS011;5776;51.814;4.510;2023-08-06T14:25:27;7.47;;;1.30;;
11439;SDS011;5776;51.814;4.510;2023-08-06T14:27:54;3.35;;;0.93;;
11439;SDS011;5776;51.814;4.510;2023-08-06T14:30:20;2.63;;;0.80;;
11439;SDS011;5776;51.814;4.510;2023-08-06T14:32:46;7.28;;;1.13;;
11439;SDS011;5776;51.814;4.510;2023-08-06T14:35:11;6.72;;;1.30;;
11439;SDS011;5776;51.814;4.510;2023-08-06T14:37:37;7.18;;;1.35;;
11439;SDS011;5776;51.814;4.510;2023-08-06T14:40:05;3.00;;;1.00;;
11439;SDS011;5776;51.814;4.510;2023-08-06T14:42:31;8.10;;;1.13;;
11439;SDS011;5776;51.814;4.510;2023-08-06T14:44:57;5.20;;;1.08;;
11439;SDS011;5776;51.814;4.510;2023-08-06T14:47:23;7.50;;;1.80;;
11439;SDS011;5776;51.814;4.510;2023-08-06T14:49:49;6.88;;;1.10;;
11439;SDS011;5776;51.814;4.510;2023-08-06T14:52:16;2.72;;;0.68;;
11439;SDS011;5776;51.814;4.510;2023-08-06T14:54:42;3.90;;;0.98;;
11439;SDS011;5776;51.814;4.510;2023-08-06T14:57:09;4.57;;;0.80;;
11439;SDS011;5776;51.814;4.510;2023-08-06T14:59:36;4.13;;;0.93;;
11439;SDS011;5776;51.814;4.510;2023-08-06T15:02:02;2.00;;;0.82;;
11439;SDS011;5776;51.814;4.510;2023-08-06T15:04:29;5.63;;;1.02;;
11439;SDS011;5776;51.814;4.510;2023-08-06T15:06:55;6.35;;;1.10;;
11439;SDS011;5776;51.814;4.510;2023-08-06T15:09:21;2.53;;;0.90;;
11439;SDS011;5776;51.814;4.510;2023-08-06T15:11:47;3.67;;;0.90;;
11439;SDS011;5776;51.814;4.510;2023-08-06T15:14:13;4.80;;;1.38;;